Time;durP1;ratioP1;P1;durP2;ratioP2;P2;SDS_P1;SDS_P2;PMS_P1;PMS_P2;Temp;Humidity;BMP_temperature;BMP_pressure;BME280_temperature;BME280_humidity;BME280_pressure;Samples;Min_cycle;Max_cycle;Signal;HPM_P1;HPM_P2
2022/04/11 00:02:23;;;;;;;0.38;0.38;;;2.70;97.40;;;;;;5053370;28;20178;-67
2022/04/11 00:04:49;;;;;;;0.40;0.40;;;2.70;97.20;;;;;;5054100;28;20202;-68
2022/04/11 00:07:15;;;;;;;0.40;0.40;;;2.80;97.30;;;;;;5051786;28;20274;-68
2022/04/11 00:09:42;;;;;;;0.40;0.40;;;2.60;97.30;;;;;;5051820;28;20419;-67
2022/04/11 00:12:09;;;;;;;0.40;0.40;;;2.80;97.50;;;;;;5052608;28;20167;-68
2022/04/11 00:14:35;;;;;;;0.40;0.40;;;2.90;97.50;;;;;;5051755;28;20565;-68
2022/04/11 00:17:01;;;;;;;0.40;0.40;;;2.90;97.40;;;;;;5053153;28;20193;-67
2022/04/11 00:19:27;;;;;;;0.40;0.40;;;2.90;97.50;;;;;;5053051;28;20408;-68
2022/04/11 00:21:52;;;;;;;0.40;0.40;;;2.90;97.10;;;;;;5051424;28;20210;-67
2022/04/11 00:24:18;;;;;;;0.40;0.40;;;2.70;96.40;;;;;;5053107;28;20166;-67
2022/04/11 00:26:44;;;;;;;0.50;0.50;;;2.80;96.60;;;;;;5053218;28;20197;-67
2022/04/11 00:29:09;;;;;;;0.40;0.40;;;2.90;96.40;;;;;;5053339;28;20642;-68
2022/04/11 00:31:35;;;;;;;0.40;0.40;;;3.00;96.20;;;;;;5056645;28;20653;-68
2022/04/11 00:34:00;;;;;;;0.40;0.40;;;3.00;96.00;;;;;;5056876;28;20591;-68
2022/04/11 00:36:26;;;;;;;0.30;0.30;;;3.10;95.80;;;;;;5056747;28;20521;-68
2022/04/11 00:38:52;;;;;;;0.30;0.30;;;3.00;95.40;;;;;;5056767;28;20661;-67
2022/04/11 00:41:17;;;;;;;0.37;0.37;;;3.10;95.50;;;;;;5056674;28;20173;-67
2022/04/11 00:43:43;;;;;;;0.40;0.40;;;3.20;95.80;;;;;;5056692;28;20265;-67
2022/04/11 00:46:09;;;;;;;0.37;0.37;;;3.00;95.30;;;;;;5056643;28;20732;-67
2022/04/11 00:48:36;;;;;;;0.30;0.30;;;3.10;95.50;;;;;;5056558;28;20164;-68
2022/04/11 00:51:20;;;;;;;0.40;0.40;;;3.10;95.20;;;;;;5055101;28;20223;-68
2022/04/11 00:53:47;;;;;;;0.40;0.40;;;3.20;94.80;;;;;;5056781;28;20193;-68
2022/04/11 00:56:15;;;;;;;0.30;0.30;;;3.30;93.40;;;;;;5056576;28;20182;-68
2022/04/11 00:58:41;;;;;;;0.40;0.40;;;3.50;93.20;;;;;;5056309;28;20178;-68
2022/04/11 01:01:08;;;;;;;0.30;0.30;;;3.60;92.90;;;;;;5056396;28;20577;-68
2022/04/11 01:03:34;;;;;;;0.40;0.40;;;3.60;93.50;;;;;;5056361;28;20221;-68
2022/04/11 01:06:01;;;;;;;0.40;0.40;;;3.60;93.70;;;;;;5056217;28;20210;-68
2022/04/11 01:08:27;;;;;;;0.30;0.30;;;3.60;92.80;;;;;;5056122;28;20194;-68
2022/04/11 01:10:53;;;;;;;0.40;0.40;;;3.50;92.80;;;;;;5054759;28;20182;-68
2022/04/11 01:13:19;;;;;;;0.32;0.32;;;3.70;92.00;;;;;;5056209;28;20401;-68
2022/04/11 01:15:55;;;;;;;0.40;0.40;;;3.60;92.70;;;;;;5054806;28;20450;-67
2022/04/11 01:18:21;;;;;;;0.40;0.40;;;3.60;93.60;;;;;;5055906;28;20434;-68
2022/04/11 01:20:47;;;;;;;0.35;0.35;;;3.40;94.10;;;;;;5055744;28;20174;-68
2022/04/11 01:23:13;;;;;;;0.33;0.33;;;3.30;93.90;;;;;;5055795;28;20193;-68
2022/04/11 01:25:40;;;;;;;0.40;0.40;;;3.30;94.50;;;;;;5055880;28;20220;-67
2022/04/11 01:28:06;;;;;;;0.40;0.40;;;3.40;94.40;;;;;;5056267;28;20195;-68
2022/04/11 01:30:31;;;;;;;0.30;0.30;;;3.30;94.40;;;;;;5055760;28;20167;-67
2022/04/11 01:32:58;;;;;;;0.37;0.37;;;3.30;94.40;;;;;;5055925;28;20249;-68
2022/04/11 01:35:25;;;;;;;0.35;0.35;;;3.30;94.00;;;;;;5055637;28;20172;-67
2022/04/11 01:37:52;;;;;;;0.30;0.30;;;3.30;93.80;;;;;;5055711;28;20209;-67
2022/04/11 01:40:18;;;;;;;0.30;0.30;;;3.50;93.70;;;;;;5055196;28;20276;-68
2022/04/11 01:42:44;;;;;;;0.30;0.30;;;3.60;93.20;;;;;;5054588;28;20681;-67
2022/04/11 01:45:11;;;;;;;0.38;0.38;;;3.70;92.40;;;;;;5055370;28;20197;-67
2022/04/11 01:47:40;;;;;;;0.40;0.40;;;3.80;91.40;;;;;;5055384;28;20194;-68
2022/04/11 01:50:07;;;;;;;0.40;0.40;;;3.90;91.70;;;;;;5055353;28;20576;-68
2022/04/11 01:52:33;;;;;;;0.40;0.40;;;3.90;91.00;;;;;;5055394;28;20174;-68
2022/04/11 01:55:03;;;;;;;0.38;0.38;;;3.90;91.10;;;;;;5055420;28;20509;-68
2022/04/11 01:57:30;;;;;;;0.35;0.35;;;4.00;91.20;;;;;;5055355;28;20198;-68
2022/04/11 01:59:55;;;;;;;0.40;0.40;;;4.00;92.10;;;;;;5055278;28;20175;-67
2022/04/11 02:02:21;;;;;;;0.40;0.40;;;4.00;91.40;;;;;;5055395;28;20209;-69
2022/04/11 02:04:47;;;;;;;0.40;0.40;;;3.90;91.30;;;;;;5055176;28;20186;-67
2022/04/11 02:07:12;;;;;;;0.40;0.40;;;4.00;91.70;;;;;;5053635;28;20227;-68
2022/04/11 02:09:38;;;;;;;0.30;0.30;;;3.80;91.50;;;;;;5055245;28;20830;-68
2022/04/11 02:12:04;;;;;;;0.30;0.30;;;3.90;92.00;;;;;;5054862;28;20202;-67
2022/04/11 02:14:30;;;;;;;0.40;0.40;;;3.90;91.60;;;;;;5055147;28;20191;-67
2022/04/11 02:16:56;;;;;;;0.40;0.40;;;3.90;91.00;;;;;;5054965;28;20186;-67
2022/04/11 02:19:22;;;;;;;0.40;0.40;;;4.00;91.10;;;;;;5054841;28;20634;-68
2022/04/11 02:21:48;;;;;;;0.40;0.40;;;4.00;91.60;;;;;;5054646;28;20425;-67
2022/04/11 02:24:14;;;;;;;0.40;0.40;;;4.00;89.70;;;;;;5055124;28;20447;-68
2022/04/11 02:26:39;;;;;;;0.40;0.40;;;4.10;87.80;;;;;;5054690;28;20252;-68
2022/04/11 02:29:05;;;;;;;0.40;0.40;;;4.20;85.50;;;;;;5054743;28;20224;-68
2022/04/11 02:31:31;;;;;;;0.40;0.40;;;4.30;86.90;;;;;;5054576;28;20215;-68
2022/04/11 02:33:56;;;;;;;0.33;0.33;;;4.40;85.00;;;;;;5054700;28;20166;-67
2022/04/11 02:36:22;;;;;;;0.40;0.40;;;4.40;87.30;;;;;;5054685;28;20506;-68
2022/04/11 02:38:47;;;;;;;0.40;0.40;;;4.40;87.20;;;;;;5054521;28;20753;-68
2022/04/11 02:41:13;;;;;;;0.30;0.30;;;4.20;86.10;;;;;;5054281;28;20170;-68
2022/04/11 02:43:39;;;;;;;0.40;0.40;;;4.20;88.60;;;;;;5054478;28;20207;-68
2022/04/11 02:46:04;;;;;;;0.40;0.40;;;4.20;88.60;;;;;;5054153;28;20603;-68
2022/04/11 02:48:30;;;;;;;0.40;0.40;;;4.10;87.20;;;;;;5054288;28;20193;-67
2022/04/11 02:50:56;;;;;;;0.40;0.40;;;4.10;86.00;;;;;;5054135;28;20181;-68
2022/04/11 02:53:21;;;;;;;0.37;0.37;;;4.10;83.60;;;;;;5053918;28;20560;-67
2022/04/11 02:55:47;;;;;;;0.57;0.57;;;4.20;86.00;;;;;;5054182;28;20638;-68
2022/04/11 02:58:12;;;;;;;0.40;0.40;;;4.30;86.20;;;;;;5054100;28;20277;-69
2022/04/11 03:00:38;;;;;;;0.30;0.30;;;4.30;85.10;;;;;;5054002;28;20174;-67
2022/04/11 03:03:04;;;;;;;0.40;0.40;;;4.30;86.40;;;;;;5054242;28;20206;-68
2022/04/11 03:05:30;;;;;;;0.40;0.40;;;4.30;87.80;;;;;;5054126;28;20227;-67
2022/04/11 03:07:55;;;;;;;0.40;0.40;;;4.20;85.00;;;;;;5054058;28;20190;-68
2022/04/11 03:10:21;;;;;;;0.40;0.40;;;4.20;86.70;;;;;;5052498;28;20401;-67
2022/04/11 03:12:46;;;;;;;0.40;0.40;;;4.20;88.30;;;;;;5053927;28;20167;-68
2022/04/11 03:15:12;;;;;;;0.40;0.40;;;4.20;85.80;;;;;;5054072;28;20170;-68
2022/04/11 03:17:38;;;;;;;0.40;0.40;;;4.20;86.00;;;;;;5053684;28;20229;-68
2022/04/11 03:20:04;;;;;;;3.40;1.57;;;4.20;89.00;;;;;;5053783;28;20174;-68
2022/04/11 03:22:30;;;;;;;0.40;0.40;;;4.10;88.30;;;;;;5053552;28;20186;-68
2022/04/11 03:24:55;;;;;;;0.40;0.40;;;4.00;88.70;;;;;;5053577;28;20206;-67
2022/04/11 03:27:21;;;;;;;0.40;0.40;;;3.80;89.00;;;;;;5053531;28;20186;-68
2022/04/11 03:29:46;;;;;;;0.40;0.40;;;3.70;88.80;;;;;;5052251;28;20259;-68
2022/04/11 03:32:12;;;;;;;0.40;0.40;;;3.70;90.20;;;;;;5053674;28;20223;-67
2022/04/11 03:34:38;;;;;;;0.40;0.40;;;3.70;90.50;;;;;;5053627;28;20166;-67
2022/04/11 03:37:04;;;;;;;0.38;0.38;;;3.60;90.70;;;;;;5053405;28;20226;-67
2022/04/11 03:39:30;;;;;;;0.40;0.40;;;3.40;91.10;;;;;;5052146;28;20174;-68
2022/04/11 03:41:55;;;;;;;0.40;0.40;;;3.40;90.90;;;;;;5053298;28;20173;-68
2022/04/11 03:44:21;;;;;;;0.40;0.40;;;3.30;91.30;;;;;;5053566;28;20265;-68
2022/04/11 03:46:47;;;;;;;0.33;0.33;;;3.20;92.00;;;;;;5053454;28;20262;-68
2022/04/11 03:49:12;;;;;;;0.40;0.40;;;3.10;92.40;;;;;;5053182;28;20541;-68
2022/04/11 03:51:38;;;;;;;0.37;0.37;;;2.90;92.80;;;;;;5053082;28;20170;-67
2022/04/11 03:54:04;;;;;;;0.40;0.40;;;2.80;92.60;;;;;;5053290;28;20169;-69
2022/04/11 03:56:29;;;;;;;0.30;0.30;;;2.90;92.20;;;;;;5053460;28;20197;-68
2022/04/11 03:58:55;;;;;;;0.30;0.30;;;2.90;91.90;;;;;;5053290;28;20229;-67
2022/04/11 04:01:20;;;;;;;0.30;0.30;;;2.90;91.90;;;;;;5053260;28;20174;-67
2022/04/11 04:03:46;;;;;;;0.30;0.30;;;2.90;92.20;;;;;;5053344;28;20285;-68
2022/04/11 04:06:12;;;;;;;0.40;0.40;;;2.80;92.50;;;;;;5055722;28;20212;-68
2022/04/11 04:08:37;;;;;;;0.40;0.40;;;2.70;92.30;;;;;;5057307;28;20179;-68
2022/04/11 04:11:03;;;;;;;0.40;0.40;;;2.70;92.50;;;;;;5057177;28;20168;-68
2022/04/11 04:13:29;;;;;;;0.30;0.30;;;2.60;92.40;;;;;;5057282;28;20170;-68
2022/04/11 04:15:55;;;;;;;0.40;0.40;;;2.60;92.60;;;;;;5057249;28;20168;-67
2022/04/11 04:18:22;;;;;;;0.30;0.30;;;2.50;92.90;;;;;;5057058;28;20190;-67
2022/04/11 04:20:47;;;;;;;0.40;0.40;;;2.50;93.10;;;;;;5056935;28;20166;-67
2022/04/11 04:23:13;;;;;;;0.30;0.30;;;2.40;93.20;;;;;;5056962;28;20269;-67
2022/04/11 04:25:39;;;;;;;0.30;0.30;;;2.40;93.50;;;;;;5057121;28;20230;-68
2022/04/11 04:28:05;;;;;;;0.30;0.30;;;2.30;93.80;;;;;;5056867;28;20221;-67
2022/04/11 04:30:30;;;;;;;0.40;0.40;;;2.20;94.20;;;;;;5056680;28;20219;-68
2022/04/11 04:32:59;;;;;;;0.30;0.30;;;2.10;94.40;;;;;;5056979;28;20421;-68
2022/04/11 04:35:26;;;;;;;0.40;0.40;;;2.20;94.50;;;;;;5056944;28;20168;-67
2022/04/11 04:37:52;;;;;;;0.30;0.30;;;2.10;94.70;;;;;;5055400;28;20619;-67
2022/04/11 04:40:19;;;;;;;0.40;0.40;;;2.10;94.80;;;;;;5056717;28;20177;-68
2022/04/11 04:42:44;;;;;;;0.40;0.40;;;2.10;94.90;;;;;;5056754;28;20185;-68
2022/04/11 04:45:10;;;;;;;0.30;0.30;;;2.10;94.80;;;;;;5056694;28;20204;-68
2022/04/11 04:47:36;;;;;;;0.37;0.37;;;2.10;94.90;;;;;;5056526;28;20199;-67
2022/04/11 04:50:02;;;;;;;0.30;0.30;;;2.10;95.10;;;;;;5056356;28;20244;-67
2022/04/11 04:52:28;;;;;;;0.40;0.40;;;2.00;95.20;;;;;;5056507;28;20187;-68
2022/04/11 04:54:53;;;;;;;0.30;0.30;;;2.00;95.20;;;;;;5056568;28;20181;-67
2022/04/11 04:57:19;;;;;;;0.77;0.77;;;2.00;95.20;;;;;;5056518;28;20184;-67
2022/04/11 04:59:45;;;;;;;0.40;0.40;;;2.00;95.00;;;;;;5056180;28;20172;-68
2022/04/11 05:02:10;;;;;;;0.30;0.30;;;2.10;94.80;;;;;;5055288;28;20247;-67
2022/04/11 05:04:36;;;;;;;0.30;0.30;;;2.10;94.60;;;;;;5056161;28;20611;-67
2022/04/11 05:07:02;;;;;;;0.30;0.30;;;2.10;94.80;;;;;;5056147;28;20214;-67
2022/04/11 05:09:27;;;;;;;0.30;0.30;;;2.10;95.00;;;;;;5056384;28;20211;-67
2022/04/11 05:11:53;;;;;;;0.40;0.40;;;2.10;95.00;;;;;;5056026;28;20185;-68
2022/04/11 05:14:19;;;;;;;0.40;0.40;;;2.10;95.10;;;;;;5056199;28;20192;-68
2022/04/11 05:16:44;;;;;;;0.40;0.40;;;2.10;95.60;;;;;;5056077;28;20192;-68
2022/04/11 05:19:10;;;;;;;0.40;0.40;;;2.10;95.40;;;;;;5056003;28;20296;-67
2022/04/11 05:21:35;;;;;;;0.30;0.30;;;2.20;95.20;;;;;;5055810;28;20541;-68
2022/04/11 05:24:01;;;;;;;0.30;0.30;;;2.20;94.90;;;;;;5056099;28;20174;-68
2022/04/11 05:26:27;;;;;;;0.40;0.40;;;2.20;95.30;;;;;;5054490;28;20217;-67
2022/04/11 05:28:52;;;;;;;0.30;0.30;;;2.20;95.10;;;;;;5055868;28;20255;-67
2022/04/11 05:31:19;;;;;;;0.40;0.40;;;2.30;95.10;;;;;;5055515;28;20174;-67
2022/04/11 05:33:45;;;;;;;0.40;0.40;;;2.30;95.00;;;;;;5055907;28;20259;-67
2022/04/11 05:36:11;;;;;;;0.35;0.35;;;2.30;94.80;;;;;;5055715;28;20189;-67
2022/04/11 05:38:37;;;;;;;0.40;0.40;;;2.40;94.70;;;;;;5055603;28;20166;-68
2022/04/11 05:41:03;;;;;;;0.30;0.30;;;2.50;94.30;;;;;;5055578;28;20181;-68
2022/04/11 05:43:29;;;;;;;0.40;0.40;;;2.50;94.20;;;;;;5056231;28;20313;-67
2022/04/11 05:45:54;;;;;;;0.33;0.33;;;2.60;94.10;;;;;;5055323;28;20495;-66
2022/04/11 05:48:20;;;;;;;0.40;0.40;;;2.50;94.30;;;;;;5055312;28;20196;-67
2022/04/11 05:50:46;;;;;;;0.33;0.33;;;2.60;94.50;;;;;;5055408;28;20166;-67
2022/04/11 05:53:11;;;;;;;1.57;1.47;;;2.80;94.40;;;;;;5055377;28;20167;-67
2022/04/11 05:55:37;;;;;;;0.40;0.40;;;3.60;95.10;;;;;;5055579;28;20173;-67
2022/04/11 05:58:02;;;;;;;0.30;0.30;;;5.20;92.90;;;;;;5055240;28;20200;-67
2022/04/11 06:00:28;;;;;;;0.30;0.30;;;7.20;90.20;;;;;;5055049;28;20251;-69
2022/04/11 06:02:54;;;;;;;0.40;0.40;;;9.00;79.80;;;;;;5055346;28;20216;-68
2022/04/11 06:05:20;;;;;;;0.30;0.30;;;10.20;70.30;;;;;;5055086;28;20469;-68
2022/04/11 06:07:46;;;;;;;0.30;0.30;;;10.50;66.70;;;;;;5055121;28;20837;-68
2022/04/11 06:10:12;;;;;;;0.30;0.30;;;10.50;63.20;;;;;;5055197;28;20170;-68
2022/04/11 06:12:38;;;;;;;0.30;0.30;;;10.30;60.60;;;;;;5055292;28;20162;-68
2022/04/11 06:15:06;;;;;;;0.30;0.30;;;9.70;62.60;;;;;;5055255;28;20185;-68
2022/04/11 06:17:32;;;;;;;0.30;0.30;;;9.40;65.30;;;;;;5054940;28;20658;-67
2022/04/11 06:19:59;;;;;;;0.30;0.30;;;9.40;64.70;;;;;;5054660;28;20170;-68
2022/04/11 06:22:27;;;;;;;0.30;0.30;;;9.30;65.80;;;;;;5054868;28;20182;-68
2022/04/11 06:25:01;;;;;;;0.30;0.30;;;9.40;66.00;;;;;;5054939;28;20198;-69
2022/04/11 06:27:27;;;;;;;0.30;0.30;;;9.30;64.80;;;;;;5054428;28;20190;-69
2022/04/11 06:29:56;;;;;;;0.30;0.30;;;9.30;64.50;;;;;;5054571;28;20185;-68
2022/04/11 06:32:27;;;;;;;0.30;0.30;;;9.30;65.30;;;;;;5054972;28;20291;-69
2022/04/11 06:34:53;;;;;;;0.30;0.30;;;9.10;64.60;;;;;;5054787;28;20173;-68
2022/04/11 06:37:18;;;;;;;0.30;0.30;;;9.00;66.50;;;;;;5054536;28;20193;-72
2022/04/11 06:39:44;;;;;;;0.30;0.30;;;9.10;67.50;;;;;;5053566;28;20423;-69
2022/04/11 06:42:10;;;;;;;0.30;0.30;;;9.20;66.40;;;;;;5053926;28;20634;-69
2022/04/11 06:44:37;;;;;;;0.30;0.30;;;9.60;66.80;;;;;;5053786;28;20170;-70
2022/04/11 06:47:03;;;;;;;0.30;0.30;;;10.30;64.50;;;;;;5053008;28;20272;-68
2022/04/11 06:49:29;;;;;;;0.30;0.30;;;11.50;61.60;;;;;;5052812;28;20415;-69
2022/04/11 06:51:55;;;;;;;0.30;0.30;;;13.10;59.20;;;;;;5052246;28;20406;-70
2022/04/11 06:54:21;;;;;;;0.70;0.70;;;14.80;54.60;;;;;;5052713;28;20625;-69
2022/04/11 06:56:47;;;;;;;0.30;0.30;;;16.40;51.40;;;;;;5053861;28;20456;-69
2022/04/11 06:59:15;;;;;;;0.30;0.30;;;17.40;46.20;;;;;;5052889;28;20449;-70
2022/04/11 07:01:40;;;;;;;0.40;0.40;;;18.60;43.70;;;;;;5053857;28;20223;-71
2022/04/11 07:04:06;;;;;;;0.30;0.30;;;19.70;41.20;;;;;;5054209;28;20379;-71
2022/04/11 07:06:32;;;;;;;0.30;0.30;;;20.60;39.40;;;;;;5052713;28;20966;-71
2022/04/11 07:08:57;;;;;;;0.30;0.30;;;21.80;36.60;;;;;;5054025;28;20166;-70
2022/04/11 07:11:23;;;;;;;0.30;0.30;;;22.40;33.30;;;;;;5052593;28;20541;-71
2022/04/11 07:13:49;;;;;;;1.03;0.87;;;23.40;32.50;;;;;;5053613;28;20664;-70
2022/04/11 07:16:14;;;;;;;0.30;0.30;;;23.80;31.50;;;;;;5053844;28;20535;-69
2022/04/11 07:18:40;;;;;;;0.30;0.30;;;23.80;31.00;;;;;;5052448;28;20209;-71
2022/04/11 07:21:05;;;;;;;0.30;0.30;;;23.80;30.80;;;;;;5053137;28;20205;-71
2022/04/11 07:23:31;;;;;;;0.30;0.30;;;23.90;30.50;;;;;;5052154;28;20189;-70
2022/04/11 07:25:57;;;;;;;0.30;0.30;;;24.30;30.80;;;;;;5052760;28;20196;-70
2022/04/11 07:28:22;;;;;;;0.30;0.30;;;24.90;28.30;;;;;;5053248;28;20213;-69
2022/04/11 07:30:48;;;;;;;0.40;0.40;;;25.30;28.10;;;;;;5053474;28;20162;-71
2022/04/11 07:33:14;;;;;;;0.40;0.40;;;25.60;29.30;;;;;;5053640;28;20170;-71
2022/04/11 07:35:39;;;;;;;0.30;0.30;;;26.00;29.00;;;;;;5053886;28;20174;-70
2022/04/11 07:38:05;;;;;;;0.30;0.30;;;26.40;28.40;;;;;;5053404;28;20431;-70
2022/04/11 07:40:31;;;;;;;0.30;0.30;;;26.60;26.90;;;;;;5052706;28;20171;-71
2022/04/11 07:42:57;;;;;;;0.40;0.40;;;26.20;25.60;;;;;;5053737;28;20170;-71
2022/04/11 07:45:22;;;;;;;0.30;0.30;;;26.60;25.30;;;;;;5053389;28;20205;-70
2022/04/11 07:47:49;;;;;;;0.30;0.30;;;26.30;27.30;;;;;;5052215;28;20186;-71
2022/04/11 07:50:15;;;;;;;0.30;0.30;;;26.50;27.00;;;;;;5053545;28;20408;-70
2022/04/11 07:52:44;;;;;;;0.30;0.30;;;26.60;25.50;;;;;;5052891;28;20450;-71
2022/04/11 07:55:12;;;;;;;0.30;0.30;;;26.50;25.00;;;;;;5051717;28;20666;-70
2022/04/11 07:57:38;;;;;;;0.30;0.30;;;26.70;25.90;;;;;;5053220;28;20790;-70
2022/04/11 08:00:06;;;;;;;0.30;0.30;;;26.90;25.30;;;;;;5050652;28;20928;-70
2022/04/11 08:02:32;;;;;;;0.30;0.30;;;26.70;24.50;;;;;;5052656;28;20400;-70
2022/04/11 08:05:05;;;;;;;0.30;0.30;;;26.50;24.80;;;;;;5053419;28;20493;-71
2022/04/11 08:07:34;;;;;;;0.30;0.30;;;26.80;24.70;;;;;;5051465;28;20424;-71
2022/04/11 08:10:01;;;;;;;0.30;0.30;;;26.80;24.90;;;;;;5052742;28;20794;-70
2022/04/11 08:12:27;;;;;;;0.30;0.30;;;27.80;23.80;;;;;;5053359;28;20446;-70
2022/04/11 08:14:52;;;;;;;0.30;0.30;;;28.10;24.00;;;;;;5053355;28;20912;-70
2022/04/11 08:17:18;;;;;;;0.30;0.30;;;28.20;23.60;;;;;;5053313;28;20190;-70
2022/04/11 08:19:43;;;;;;;0.60;0.50;;;28.50;23.80;;;;;;5053153;28;20178;-71
2022/04/11 08:22:09;;;;;;;0.40;0.40;;;28.80;23.00;;;;;;5051843;28;20197;-71
2022/04/11 08:24:35;;;;;;;0.30;0.30;;;28.60;22.20;;;;;;5053240;28;20170;-70
2022/04/11 08:27:00;;;;;;;0.57;0.57;;;27.80;22.70;;;;;;5053340;28;20546;-70
2022/04/11 08:29:26;;;;;;;0.50;0.50;;;27.30;22.80;;;;;;5053176;28;20249;-70
2022/04/11 08:31:52;;;;;;;0.30;0.30;;;26.40;23.40;;;;;;5053053;28;20625;-70
2022/04/11 08:34:18;;;;;;;0.30;0.30;;;25.70;24.30;;;;;;5053548;28;20646;-70
2022/04/11 08:36:44;;;;;;;0.30;0.30;;;25.20;24.10;;;;;;5053147;28;20524;-70
2022/04/11 08:39:10;;;;;;;0.30;0.30;;;25.20;24.50;;;;;;5052997;28;20166;-70
2022/04/11 08:41:36;;;;;;;0.30;0.30;;;25.80;24.50;;;;;;5051261;28;20405;-70
2022/04/11 08:44:07;;;;;;;0.30;0.30;;;27.00;24.20;;;;;;5052652;28;20821;-69
2022/04/11 08:46:34;;;;;;;0.30;0.30;;;28.00;23.80;;;;;;5052277;28;20460;-70
2022/04/11 08:49:06;;;;;;;0.30;0.30;;;28.70;23.00;;;;;;5051371;28;20409;-69
2022/04/11 08:51:33;;;;;;;0.30;0.30;;;28.30;23.00;;;;;;5055172;28;20775;-70
2022/04/11 08:54:01;;;;;;;0.40;0.40;;;28.50;22.80;;;;;;5056659;28;20746;-71
2022/04/11 08:56:28;;;;;;;0.30;0.30;;;29.10;22.00;;;;;;5056587;28;20408;-69
2022/04/11 08:58:54;;;;;;;0.50;0.50;;;29.40;21.50;;;;;;5056555;28;20473;-70
2022/04/11 09:01:20;;;;;;;0.30;0.30;;;29.30;21.90;;;;;;5056400;28;20491;-70
2022/04/11 09:03:46;;;;;;;0.30;0.30;;;28.60;21.40;;;;;;5056646;28;20253;-71
2022/04/11 09:06:15;;;;;;;0.30;0.30;;;28.50;21.30;;;;;;5056454;28;20583;-70
2022/04/11 09:08:49;;;;;;;0.37;0.37;;;27.70;21.80;;;;;;5056364;28;20162;-70
2022/04/11 09:11:28;;;;;;;0.30;0.30;;;27.40;22.30;;;;;;5056341;28;20445;-70
2022/04/11 09:13:53;;;;;;;0.30;0.30;;;28.10;22.60;;;;;;5056454;28;20397;-71
2022/04/11 09:16:19;;;;;;;0.40;0.40;;;28.80;22.60;;;;;;5056409;28;20408;-70
2022/04/11 09:18:50;;;;;;;0.70;0.70;;;29.30;21.80;;;;;;5056116;28;20685;-70
2022/04/11 09:21:17;;;;;;;0.30;0.30;;;28.20;21.90;;;;;;5055929;28;20170;-70
2022/04/11 09:23:43;;;;;;;0.30;0.30;;;27.60;22.50;;;;;;5056266;28;20408;-70
2022/04/11 09:26:22;;;;;;;0.30;0.30;;;26.90;22.70;;;;;;5054237;28;20460;-69
2022/04/11 09:29:04;;;;;;;0.30;0.30;;;27.50;23.80;;;;;;5055378;28;20408;-70
2022/04/11 09:31:30;;;;;;;0.30;0.30;;;27.30;23.10;;;;;;5055622;28;20393;-70
2022/04/11 09:33:57;;;;;;;0.30;0.30;;;27.80;24.20;;;;;;5054420;28;20444;-70
2022/04/11 09:36:24;;;;;;;0.30;0.30;;;28.20;22.40;;;;;;5055635;28;20458;-70
2022/04/11 09:38:59;;;;;;;0.30;0.30;;;28.20;22.90;;;;;;5055802;28;20435;-70
2022/04/11 09:41:34;;;;;;;0.60;0.37;;;28.00;22.60;;;;;;5055489;28;20400;-70
2022/04/11 09:44:21;;;;;;;0.30;0.30;;;27.50;22.90;;;;;;5054715;28;20405;-70
2022/04/11 09:46:47;;;;;;;0.30;0.30;;;27.70;23.20;;;;;;5055231;28;20468;-70
2022/04/11 09:49:13;;;;;;;0.30;0.30;;;27.20;22.90;;;;;;5054090;28;20900;-70
2022/04/11 09:52:11;;;;;;;0.30;0.30;;;27.00;23.20;;;;;;5055106;28;20627;-69
2022/04/11 09:54:42;;;;;;;0.40;0.40;;;26.70;23.40;;;;;;5055747;28;20253;-69
2022/04/11 09:57:08;;;;;;;0.30;0.30;;;26.60;23.50;;;;;;5053710;28;20428;-70
2022/04/11 09:59:35;;;;;;;0.30;0.30;;;26.50;23.60;;;;;;5054885;28;20413;-70
2022/04/11 10:02:01;;;;;;;0.30;0.30;;;26.20;23.70;;;;;;5054479;28;20404;-70
2022/04/11 10:04:27;;;;;;;0.30;0.30;;;26.60;24.40;;;;;;5055130;28;20952;-70
2022/04/11 10:06:53;;;;;;;0.30;0.30;;;26.70;24.10;;;;;;5055146;28;20448;-70
2022/04/11 10:09:23;;;;;;;0.30;0.30;;;27.10;23.90;;;;;;5055287;28;20397;-70
2022/04/11 10:11:49;;;;;;;0.30;0.30;;;27.30;23.70;;;;;;5054229;28;20401;-73
2022/04/11 10:14:26;;;;;;;0.30;0.30;;;27.30;23.40;;;;;;5054582;28;20750;-73
2022/04/11 10:16:57;;;;;;;0.30;0.30;;;27.00;23.00;;;;;;5055020;28;20841;-70
2022/04/11 10:19:29;;;;;;;0.30;0.30;;;26.70;24.20;;;;;;5053848;28;20880;-73
2022/04/11 10:21:59;;;;;;;0.30;0.30;;;25.30;24.60;;;;;;5054717;28;20458;-72
2022/04/11 10:25:02;;;;;;;0.30;0.30;;;24.70;25.10;;;;;;5055124;28;20770;-71
2022/04/11 10:27:29;;;;;;;0.30;0.30;;;24.70;24.60;;;;;;5054895;28;20853;-70
2022/04/11 10:29:55;;;;;;;0.30;0.30;;;24.80;25.30;;;;;;5053347;28;20912;-73
2022/04/11 10:32:26;;;;;;;0.30;0.30;;;24.40;24.30;;;;;;5055026;28;20407;-70
2022/04/11 10:35:00;;;;;;;0.30;0.30;;;24.10;24.60;;;;;;5054907;28;20483;-72
2022/04/11 10:37:28;;;;;;;0.30;0.30;;;23.60;23.20;;;;;;5053567;28;20428;-72
2022/04/11 10:40:16;;;;;;;0.30;0.30;;;22.70;25.00;;;;;;5054467;28;20925;-71
2022/04/11 10:43:04;;;;;;;0.30;0.30;;;22.90;25.20;;;;;;5054620;28;20470;-71
2022/04/11 10:45:31;;;;;;;0.30;0.30;;;22.50;25.10;;;;;;5054607;28;20418;-70
2022/04/11 10:47:56;;;;;;;0.30;0.30;;;22.10;26.00;;;;;;5054620;28;20451;-71
2022/04/11 10:50:24;;;;;;;0.30;0.30;;;21.70;25.90;;;;;;5054290;28;20408;-73
2022/04/11 10:53:06;;;;;;;0.30;0.30;;;21.60;26.30;;;;;;5054477;28;20588;-72
2022/04/11 10:55:32;;;;;;;0.30;0.30;;;21.40;25.40;;;;;;5053107;28;20492;-72
2022/04/11 10:58:00;;;;;;;0.30;0.30;;;21.20;25.60;;;;;;5054154;28;20821;-71
2022/04/11 11:00:35;;;;;;;0.30;0.30;;;21.10;26.60;;;;;;5052868;28;20431;-71
2022/04/11 11:03:01;;;;;;;0.30;0.30;;;21.10;25.30;;;;;;5053837;28;20399;-71
2022/04/11 11:05:35;;;;;;;0.30;0.30;;;21.10;26.60;;;;;;5054089;28;20446;-70
2022/04/11 11:08:10;;;;;;;0.30;0.30;;;21.40;26.00;;;;;;5052764;28;20425;-71
2022/04/11 11:10:57;;;;;;;0.30;0.30;;;21.30;26.30;;;;;;5053978;28;20408;-70
2022/04/11 11:13:38;;;;;;;0.30;0.30;;;21.50;26.30;;;;;;5052877;28;20441;-73
2022/04/11 11:16:03;;;;;;;0.30;0.30;;;21.40;26.90;;;;;;5054001;28;20406;-72
2022/04/11 11:18:50;;;;;;;0.30;0.30;;;21.50;26.70;;;;;;5052504;28;20485;-71
2022/04/11 11:21:20;;;;;;;0.30;0.30;;;21.20;26.90;;;;;;5046438;28;20703;-70
2022/04/11 11:26:45;;;;;;;0.30;0.30;;;20.60;26.80;;;;;;5053828;28;20452;-72
2022/04/11 11:29:19;;;;;;;0.30;0.30;;;20.60;25.30;;;;;;5053887;28;20934;-70
2022/04/11 11:31:47;;;;;;;0.30;0.30;;;20.70;26.60;;;;;;5053403;28;20404;-71
2022/04/11 11:34:16;;;;;;;0.30;0.30;;;20.30;25.50;;;;;;5053851;28;21443;-70
2022/04/11 11:36:43;;;;;;;0.30;0.30;;;20.00;25.30;;;;;;5053585;28;20925;-71
2022/04/11 11:39:23;;;;;;;0.30;0.30;;;20.10;26.40;;;;;;5053562;28;20466;-71
2022/04/11 11:41:54;;;;;;;0.30;0.30;;;20.10;27.20;;;;;;5053581;28;20492;-72
2022/04/11 11:44:20;;;;;;;0.40;0.40;;;19.70;28.70;;;;;;5053716;28;20408;-72
2022/04/11 11:46:47;;;;;;;0.40;0.40;;;19.10;29.40;;;;;;5053721;28;20466;-71
2022/04/11 11:49:12;;;;;;;1.43;1.33;;;19.10;30.40;;;;;;5053498;28;20479;-70
2022/04/11 11:51:38;;;;;;;0.40;0.40;;;18.50;32.00;;;;;;5053422;28;20437;-71
2022/04/11 11:54:04;;;;;;;0.30;0.30;;;18.30;32.00;;;;;;5053534;28;20175;-70
2022/04/11 11:56:46;;;;;;;0.40;0.40;;;18.30;31.30;;;;;;5053524;28;20173;-72
2022/04/11 11:59:15;;;;;;;0.30;0.30;;;18.30;31.80;;;;;;5053244;28;20419;-72
2022/04/11 12:04:18;;;;;;;0.30;0.30;;;18.20;31.40;;;;;;5051913;28;20505;-70
2022/04/11 12:04:35;;;;;;;0.30;0.30;;;18.30;32.50;;;;;;5053208;28;20420;-71
2022/04/11 12:07:01;;;;;;;0.30;0.30;;;18.20;32.30;;;;;;5052393;28;20445;-72
2022/04/11 12:09:41;;;;;;;0.30;0.30;;;18.00;33.30;;;;;;5051240;28;20393;-73
2022/04/11 12:12:12;;;;;;;0.30;0.30;;;17.90;32.70;;;;;;5050957;28;20409;-72
2022/04/11 12:15:01;;;;;;;0.40;0.40;;;17.80;33.30;;;;;;5052194;28;20418;-70
2022/04/11 12:17:33;;;;;;;0.30;0.30;;;17.60;33.40;;;;;;5050494;28;20447;-71
2022/04/11 12:20:09;;;;;;;0.30;0.30;;;17.80;33.80;;;;;;5051762;28;20814;-70
2022/04/11 12:22:35;;;;;;;0.30;0.30;;;17.80;34.20;;;;;;5051861;28;20419;-71
2022/04/11 12:25:22;;;;;;;0.30;0.30;;;17.80;34.10;;;;;;5051965;28;20441;-72
2022/04/11 12:27:49;;;;;;;0.30;0.30;;;17.70;33.90;;;;;;5056920;28;20427;-72
2022/04/11 12:30:15;;;;;;;0.30;0.30;;;17.70;33.50;;;;;;5056925;28;20455;-71
2022/04/11 12:32:41;;;;;;;0.30;0.30;;;17.50;34.30;;;;;;5057026;28;20402;-70
2022/04/11 12:35:16;;;;;;;0.30;0.30;;;17.10;35.20;;;;;;5056953;28;20423;-70
2022/04/11 12:37:54;;;;;;;0.30;0.30;;;16.90;37.60;;;;;;5056916;28;20194;-69
2022/04/11 12:40:19;;;;;;;0.30;0.30;;;16.90;37.90;;;;;;5056896;28;20778;-72
2022/04/11 12:42:47;;;;;;;0.80;0.80;;;17.00;35.80;;;;;;5057035;28;20403;-70
2022/04/11 12:45:14;;;;;;;0.30;0.30;;;17.00;36.70;;;;;;5056807;28;20203;-71
2022/04/11 12:48:02;;;;;;;0.30;0.30;;;16.90;35.90;;;;;;5056726;28;20417;-71
2022/04/11 12:50:28;;;;;;;0.30;0.30;;;16.90;38.20;;;;;;5055290;28;20991;-72
2022/04/11 12:52:54;;;;;;;1.03;0.93;;;16.90;36.10;;;;;;5056842;28;20484;-71
2022/04/11 12:55:33;;;;;;;0.30;0.30;;;16.70;36.80;;;;;;5056767;28;20500;-69
2022/04/11 12:58:04;;;;;;;0.30;0.30;;;16.50;37.20;;;;;;5056693;28;20190;-70
2022/04/11 13:00:31;;;;;;;0.30;0.30;;;16.60;37.60;;;;;;5056404;28;20436;-71